createdAt,value
2023-02-02T00:00:49.438Z,99892.19
2023-02-02T00:01:53.699Z,99886.51
2023-02-02T00:02:58.149Z,99891.38
2023-02-02T00:04:02.644Z,99892.46
2023-02-02T00:05:07.002Z,99897.73
2023-02-02T00:06:11.279Z,99889.84
2023-02-02T00:07:15.533Z,99893.37
2023-02-02T00:08:19.781Z,99896.87
2023-02-02T00:09:24.065Z,99896.38
2023-02-02T00:10:28.305Z,99887.93
2023-02-02T00:11:32.580Z,99888.94
2023-02-02T00:12:36.834Z,99886.67
2023-02-02T00:13:41.080Z,99888.83
2023-02-02T00:14:45.330Z,99889.3
2023-02-02T00:15:49.701Z,99883.75
2023-02-02T00:16:54.093Z,99886.34
2023-02-02T00:17:58.378Z,99881.48
2023-02-02T00:19:02.624Z,99893.61
2023-02-02T00:20:06.875Z,99883.14
2023-02-02T00:21:11.099Z,99880.14
2023-02-02T00:22:15.351Z,99882.33
2023-02-02T00:23:19.661Z,99888.03
2023-02-02T00:24:23.994Z,99880.33
2023-02-02T00:25:28.262Z,99882.44
2023-02-02T00:26:32.580Z,99880.36
2023-02-02T00:27:36.893Z,99884.76
2023-02-02T00:28:41.151Z,99883.5
2023-02-02T00:29:45.410Z,99879.59
2023-02-02T00:30:49.730Z,99880.66
2023-02-02T00:31:54.414Z,99882.44
2023-02-02T00:32:58.739Z,99885.11
2023-02-02T00:34:03.060Z,99878.86
2023-02-02T00:35:07.324Z,99886.89
2023-02-02T00:36:11.571Z,99881.94
2023-02-02T00:37:15.860Z,99876.86
2023-02-02T00:38:20.123Z,99875
2023-02-02T00:39:24.387Z,99873.25
2023-02-02T00:40:28.722Z,99879.02
2023-02-02T00:41:32.970Z,99873.25
2023-02-02T00:42:37.256Z,99872.73
2023-02-02T00:43:41.535Z,99873.42
2023-02-02T00:44:45.804Z,99867.73
2023-02-02T00:45:50.173Z,99874.21
2023-02-02T00:46:54.491Z,99874.05
2023-02-02T00:47:58.720Z,99874.21
2023-02-02T00:49:02.956Z,99872.95
2023-02-02T00:50:07.273Z,99869.42
2023-02-02T00:51:11.531Z,99863.17
2023-02-02T00:52:15.796Z,99868.85
2023-02-02T00:53:20.086Z,99872.43
2023-02-02T00:54:24.344Z,99870.35
2023-02-02T00:55:28.647Z,99865.5
2023-02-02T00:56:32.981Z,99865.98
2023-02-02T00:57:37.299Z,99875.44
2023-02-02T00:58:41.559Z,99865.08
2023-02-02T00:59:45.837Z,99856.8
2023-02-02T01:00:50.210Z,99863.5
2023-02-02T01:01:54.633Z,99865.17
2023-02-02T01:02:59.029Z,99862.66
2023-02-02T01:04:03.325Z,99862.66
2023-02-02T01:05:07.597Z,99859.51
2023-02-02T01:06:11.886Z,99857.73
2023-02-02T01:07:16.161Z,99855.49
2023-02-02T01:08:20.392Z,99863.28
2023-02-02T01:09:24.755Z,99859.2
2023-02-02T01:10:29.056Z,99864.45
2023-02-02T01:11:33.336Z,99864.7
2023-02-02T01:12:37.655Z,99856.5
2023-02-02T01:13:41.923Z,99855.05
2023-02-02T01:14:46.171Z,99857.08
2023-02-02T01:15:50.405Z,99852.23
2023-02-02T01:16:54.677Z,99851.5
2023-02-02T01:17:58.971Z,99846.88
2023-02-02T01:19:03.279Z,99844.2
2023-02-02T01:20:07.595Z,99842.55
2023-02-02T01:21:11.916Z,99837.67
2023-02-02T01:22:16.208Z,99843.47
2023-02-02T01:23:20.475Z,99845.3
2023-02-02T01:24:24.724Z,99842.02
2023-02-02T01:25:29.015Z,99840.47
2023-02-02T01:26:33.431Z,99837.67
2023-02-02T01:27:37.737Z,99835.85
2023-02-02T01:28:42.163Z,99835
2023-02-02T01:29:46.390Z,99825.5
2023-02-02T01:30:50.729Z,99828.5
2023-02-02T01:31:55.262Z,99828.7
2023-02-02T01:32:59.662Z,99824.35
2023-02-02T01:34:03.945Z,99827.59
2023-02-02T01:35:08.177Z,99831.04
2023-02-02T01:36:12.446Z,99828.04
2023-02-02T01:37:16.717Z,99822.77
2023-02-02T01:38:20.975Z,99813.8
2023-02-02T01:39:25.226Z,99822.52
2023-02-02T01:40:29.480Z,99810.87
2023-02-02T01:41:33.749Z,99818.58
2023-02-02T01:42:38.017Z,99820.77
2023-02-02T01:43:42.288Z,99811.32
2023-02-02T01:44:46.591Z,99802.63
2023-02-02T01:45:50.908Z,99812
2023-02-02T01:46:55.311Z,99809
2023-02-02T01:47:59.591Z,99811.73
2023-02-02T01:49:03.860Z,99812.66
2023-02-02T01:50:08.158Z,99810.31
2023-02-02T01:51:12.471Z,99807.39
2023-02-02T01:52:16.790Z,99807.22
2023-02-02T01:53:21.046Z,99799.52
2023-02-02T01:54:25.312Z,99798.62
2023-02-02T01:55:29.596Z,99798.43
2023-02-02T01:56:33.879Z,99797.64
2023-02-02T01:57:38.174Z,99793.78
2023-02-02T01:58:42.415Z,99787.75
2023-02-02T01:59:46.673Z,99793.76
2023-02-02T02:00:50.963Z,99792.28
2023-02-02T02:01:55.210Z,99787.34
2023-02-02T02:02:59.499Z,99787.06
2023-02-02T02:04:03.777Z,99780.13
2023-02-02T02:05:08.081Z,99774.12
2023-02-02T02:06:12.435Z,99778.66
2023-02-02T02:07:16.791Z,99774.23
2023-02-02T02:08:21.083Z,99772.45
2023-02-02T02:09:25.380Z,99767.63
2023-02-02T02:10:29.642Z,99760.52
2023-02-02T02:11:33.918Z,99765.95
2023-02-02T02:12:38.203Z,99764.7
2023-02-02T02:13:42.508Z,99765.95
2023-02-02T02:14:46.803Z,99771.06
2023-02-02T02:15:51.099Z,99754.11
2023-02-02T02:16:55.562Z,99760.8
2023-02-02T02:17:59.954Z,99754.27
2023-02-02T02:19:04.218Z,99754.19
2023-02-02T02:20:08.497Z,99759.63
2023-02-02T02:21:12.796Z,99747.66
2023-02-02T02:22:17.179Z,99756.38
2023-02-02T02:23:21.433Z,99755.96
2023-02-02T02:24:25.679Z,99752.36
2023-02-02T02:25:29.991Z,99750.69
2023-02-02T02:26:34.432Z,99740.51
2023-02-02T02:27:38.825Z,99726.53
2023-02-02T02:28:43.081Z,99746.79
2023-02-02T02:29:47.340Z,99733.22
2023-02-02T02:30:51.829Z,99743.11
2023-02-02T02:31:56.229Z,99733.08
2023-02-02T02:33:00.512Z,99737.91
2023-02-02T02:34:04.779Z,99736.16
2023-02-02T02:35:09.022Z,99734.31
2023-02-02T02:36:13.302Z,99738.33
2023-02-02T02:37:17.562Z,99736.5
2023-02-02T02:38:21.845Z,99729.8
2023-02-02T02:39:26.096Z,99739.25
2023-02-02T02:40:30.367Z,99729.4
2023-02-02T02:41:34.623Z,99723.28
2023-02-02T02:42:38.889Z,99724.41
2023-02-02T02:43:43.144Z,99731.58
2023-02-02T02:44:47.412Z,99725.41
2023-02-02T02:45:51.822Z,99715.45
2023-02-02T02:46:56.169Z,99719.3
2023-02-02T02:48:00.407Z,99724.64
2023-02-02T02:49:04.740Z,99729.18
2023-02-02T02:50:09.007Z,99720.06
2023-02-02T02:51:13.262Z,99701.91
2023-02-02T02:52:17.617Z,99715.72
2023-02-02T02:53:21.871Z,99706.92
2023-02-02T02:54:26.173Z,99707.45
2023-02-02T02:55:30.497Z,99713.86
2023-02-02T02:56:34.754Z,99705.51
2023-02-02T02:57:38.989Z,99690.79
2023-02-02T02:58:43.259Z,99699.34
2023-02-02T02:59:47.521Z,99697.75
2023-02-02T03:00:51.836Z,99687.05
2023-02-02T03:01:56.100Z,99694.23
2023-02-02T03:03:00.346Z,99691.56
2023-02-02T03:04:04.608Z,99686.97
2023-02-02T03:05:08.878Z,99686.13
2023-02-02T03:06:13.150Z,99686.13
2023-02-02T03:07:17.398Z,99692.08
2023-02-02T03:08:21.659Z,99693.17
2023-02-02T03:09:25.938Z,99680.64
2023-02-02T03:10:30.209Z,99680.04
2023-02-02T03:11:34.474Z,99685.58
2023-02-02T03:12:38.723Z,99689.68
2023-02-02T03:13:42.960Z,99687.94
2023-02-02T03:14:47.208Z,99684.48
2023-02-02T03:15:51.572Z,99676.46
2023-02-02T03:16:56.100Z,99666.94
2023-02-02T03:18:00.339Z,99671.96
2023-02-02T03:19:04.611Z,99668.27
2023-02-02T03:20:08.902Z,99670.63
2023-02-02T03:21:13.196Z,99667.67
2023-02-02T03:22:17.442Z,99662.52
2023-02-02T03:23:21.721Z,99659.84
2023-02-02T03:24:25.985Z,99648.89
2023-02-02T03:25:30.247Z,99648.73
2023-02-02T03:26:34.653Z,99649.98
2023-02-02T03:27:39.002Z,99649.06
2023-02-02T03:28:43.283Z,99645.29
2023-02-02T03:29:47.564Z,99638.28
2023-02-02T03:30:52.116Z,99641.88
2023-02-02T03:31:56.592Z,99647.23
2023-02-02T03:33:00.837Z,99637.87
2023-02-02T03:34:05.101Z,99639.61
2023-02-02T03:35:09.329Z,99631.59
2023-02-02T03:36:13.598Z,99635.6
2023-02-02T03:37:17.840Z,99634.45
2023-02-02T03:38:22.113Z,99634.02
2023-02-02T03:39:26.378Z,99638.72
2023-02-02T03:40:30.673Z,99636.31
2023-02-02T03:41:34.971Z,99633.89
2023-02-02T03:42:39.276Z,99627.56
2023-02-02T03:43:43.560Z,99612.16
2023-02-02T03:44:47.816Z,99605.8
2023-02-02T03:45:52.074Z,99636.72
2023-02-02T03:46:56.371Z,99634.38
2023-02-02T03:48:00.643Z,99627.03
2023-02-02T03:49:04.896Z,99628.3
2023-02-02T03:50:10.854Z,99618.77
2023-02-02T03:51:15.139Z,99622.02
2023-02-02T03:52:19.490Z,99616.94
2023-02-02T03:53:23.754Z,99623.02
2023-02-02T03:54:28.020Z,99622.21
2023-02-02T03:55:32.285Z,99617.34
2023-02-02T03:56:36.582Z,99625.29
2023-02-02T03:57:41.022Z,99614.79
2023-02-02T03:58:45.307Z,99618.61
2023-02-02T03:59:49.711Z,99627.64
2023-02-02T04:00:53.988Z,99623.55
2023-02-02T04:01:58.459Z,99616.53
2023-02-02T04:03:03.033Z,99630.64
2023-02-02T04:04:07.443Z,99621.28
2023-02-02T04:05:11.763Z,99609.89
2023-02-02T04:06:16.072Z,99624.2
2023-02-02T04:07:20.388Z,99626.03
2023-02-02T04:08:24.650Z,99625.94
2023-02-02T04:09:28.926Z,99623.47
2023-02-02T04:10:33.230Z,99623.95
2023-02-02T04:11:39.331Z,99627.03
2023-02-02T04:12:43.741Z,99634.9
2023-02-02T04:13:47.998Z,99622.13
2023-02-02T04:14:52.270Z,99621.8
2023-02-02T04:15:56.600Z,99621.03
2023-02-02T04:17:00.953Z,99637.93
2023-02-02T04:18:05.269Z,99629.55
2023-02-02T04:19:09.533Z,99628.98
2023-02-02T04:20:13.798Z,99627.15
2023-02-02T04:21:18.075Z,99629.33
2023-02-02T04:22:22.338Z,99634.36
2023-02-02T04:23:26.629Z,99629.01
2023-02-02T04:24:30.919Z,99628.6
2023-02-02T04:25:35.174Z,99637
2023-02-02T04:26:39.547Z,99629.98
2023-02-02T04:27:44.013Z,99638.75
2023-02-02T04:28:48.293Z,99642.63
2023-02-02T04:29:52.683Z,99638.86
2023-02-02T04:30:57.066Z,99650.1
2023-02-02T04:32:01.704Z,99639.4
2023-02-02T04:33:05.988Z,99653.98
2023-02-02T04:34:10.286Z,99643.28
2023-02-02T04:35:14.553Z,99647.65
2023-02-02T04:36:18.832Z,99649.17
2023-02-02T04:37:23.119Z,99652.86
2023-02-02T04:38:27.383Z,99648.33
2023-02-02T04:39:31.664Z,99656.68
2023-02-02T04:40:35.918Z,99656.81
2023-02-02T04:41:40.207Z,99644.78
2023-02-02T04:42:44.474Z,99650.13
2023-02-02T04:43:48.841Z,99652.48
2023-02-02T04:44:53.127Z,99658.13
2023-02-02T04:45:57.687Z,99651.88
2023-02-02T04:47:02.079Z,99653.05
2023-02-02T04:48:06.377Z,99649.03
2023-02-02T04:49:10.665Z,99665.44
2023-02-02T04:50:14.953Z,99667.98
2023-02-02T04:51:19.271Z,99664.78
2023-02-02T04:52:23.580Z,99679.5
2023-02-02T04:53:27.854Z,99675.81
2023-02-02T04:54:32.173Z,99672.34
2023-02-02T04:55:36.482Z,99677.15
2023-02-02T04:56:40.723Z,99682.85
2023-02-02T04:57:44.997Z,99683.73
2023-02-02T04:58:49.270Z,99680.16
2023-02-02T04:59:53.524Z,99683.45
2023-02-02T05:00:58.033Z,99685.88
2023-02-02T05:02:02.349Z,99680.55
2023-02-02T05:03:06.632Z,99684.34
2023-02-02T05:04:10.976Z,99691.82
2023-02-02T05:05:15.333Z,99706.1
2023-02-02T05:06:19.614Z,99693.91
2023-02-02T05:07:23.919Z,99701.44
2023-02-02T05:08:28.177Z,99708.19
2023-02-02T05:09:32.445Z,99705.53
2023-02-02T05:10:36.771Z,99701.81
2023-02-02T05:11:41.030Z,99715.73
2023-02-02T05:12:45.306Z,99707.64
2023-02-02T05:13:49.592Z,99710.01
2023-02-02T05:14:53.855Z,99711.6
2023-02-02T05:15:58.151Z,99723.06
2023-02-02T05:17:02.540Z,99724.27
2023-02-02T05:18:06.794Z,99729.59
2023-02-02T05:19:11.091Z,99720.91
2023-02-02T05:20:15.418Z,99719.29
2023-02-02T05:21:19.734Z,99726.8
2023-02-02T05:22:24.063Z,99736.3
2023-02-02T05:23:28.385Z,99717.67
2023-02-02T05:24:32.640Z,99725.87
2023-02-02T05:25:36.911Z,99723.59
2023-02-02T05:26:41.249Z,99733.45
2023-02-02T05:27:45.553Z,99744.3
2023-02-02T05:28:49.920Z,99740.52
2023-02-02T05:29:54.182Z,99745.59
2023-02-02T05:30:58.679Z,99751.36
2023-02-02T05:32:03.164Z,99747.26
2023-02-02T05:33:07.604Z,99751.52
2023-02-02T05:34:12.231Z,99754.61
2023-02-02T05:35:16.703Z,99756.19
2023-02-02T05:36:21.024Z,99748.68
2023-02-02T05:37:25.273Z,99753.14
2023-02-02T05:38:29.541Z,99752.13
2023-02-02T05:39:33.883Z,99763.17
2023-02-02T05:40:38.132Z,99766.26
2023-02-02T05:41:42.432Z,99769.91
2023-02-02T05:42:46.749Z,99757.84
2023-02-02T05:43:51.038Z,99760.16
2023-02-02T05:44:55.307Z,99766.75
2023-02-02T05:45:59.648Z,99768.09
2023-02-02T05:47:04.151Z,99771.53
2023-02-02T05:48:08.410Z,99770.59
2023-02-02T05:49:12.665Z,99775.03
2023-02-02T05:50:16.923Z,99772.87
2023-02-02T05:51:21.221Z,99779.29
2023-02-02T05:52:25.528Z,99777.34
2023-02-02T05:53:29.791Z,99781.69
2023-02-02T05:54:34.085Z,99790.38
2023-02-02T05:55:38.345Z,99763.98
2023-02-02T05:56:42.614Z,99792.65
2023-02-02T05:57:47.004Z,99773.8
2023-02-02T05:58:51.270Z,99787.52
2023-02-02T05:59:55.530Z,99782.74
2023-02-02T06:00:59.800Z,99795.82
2023-02-02T06:02:04.049Z,99792.97
2023-02-02T06:03:08.651Z,99796.8
2023-02-02T06:04:13.257Z,99803.73
2023-02-02T06:05:17.636Z,99809.18
2023-02-02T06:06:21.938Z,99821.77
2023-02-02T06:07:26.247Z,99806.17
2023-02-02T06:08:30.512Z,99799.06
2023-02-02T06:09:34.803Z,99813.25
2023-02-02T06:10:39.113Z,99821.56
2023-02-02T06:11:43.371Z,99807.84
2023-02-02T06:12:47.645Z,99828.03
2023-02-02T06:13:51.937Z,99817.09
2023-02-02T06:14:56.203Z,99824.9
2023-02-02T06:16:00.680Z,99839.8
2023-02-02T06:17:05.020Z,99833.83
2023-02-02T06:18:09.496Z,99845.23
2023-02-02T06:19:13.906Z,99841.98
2023-02-02T06:20:19.740Z,99852.98
2023-02-02T06:21:25.952Z,99848.39
2023-02-02T06:22:30.324Z,99860.53
2023-02-02T06:23:34.640Z,99849.25
2023-02-02T06:24:39.034Z,99855.82
2023-02-02T06:25:43.309Z,99859.52
2023-02-02T06:26:47.794Z,99862.88
2023-02-02T06:27:52.161Z,99866.33
2023-02-02T06:28:56.437Z,99878.17
2023-02-02T06:30:00.717Z,99864.28
2023-02-02T06:31:05.186Z,99883.64
2023-02-02T06:32:09.817Z,99858.05
2023-02-02T06:33:14.136Z,99882.73
2023-02-02T06:34:18.505Z,99885.09
2023-02-02T06:35:23.355Z,99886.1
2023-02-02T06:36:28.056Z,99887.36
2023-02-02T06:37:32.490Z,99874.89
2023-02-02T06:38:36.775Z,99888.53
2023-02-02T06:39:41.057Z,99891.02
2023-02-02T06:40:45.296Z,99895.7
2023-02-02T06:41:49.578Z,99898.27
2023-02-02T06:42:53.851Z,99902.58
2023-02-02T06:43:58.101Z,99899.42
2023-02-02T06:45:02.405Z,99916.32
2023-02-02T06:46:06.972Z,99905.66
2023-02-02T06:47:11.265Z,99902.61
2023-02-02T06:48:15.559Z,99906.77
2023-02-02T06:49:19.842Z,99915.78
2023-02-02T06:50:24.122Z,99911.08
2023-02-02T06:51:28.394Z,99922.97
2023-02-02T06:52:32.665Z,99912.05
2023-02-02T06:53:36.977Z,99938.78
2023-02-02T06:54:41.253Z,99932.73
2023-02-02T06:55:45.557Z,99926.27
2023-02-02T06:56:49.811Z,99925.63
2023-02-02T06:57:54.078Z,99944.95
2023-02-02T06:58:58.348Z,99947.75
2023-02-02T07:00:02.631Z,99952.67
2023-02-02T07:01:06.967Z,99956.89
2023-02-02T07:02:11.272Z,99951.89
2023-02-02T07:03:15.674Z,99964.96
2023-02-02T07:04:20.009Z,99966.17
2023-02-02T07:05:25.130Z,99965.31
2023-02-02T07:06:33.620Z,99966.52
2023-02-02T07:07:38.014Z,99974.23
2023-02-02T07:08:42.362Z,99954.38
2023-02-02T07:09:46.759Z,99973.41
2023-02-02T07:11:16.866Z,99948.72
2023-02-02T07:12:22.362Z,99993.13
2023-02-02T07:13:27.064Z,99986.79
2023-02-02T07:14:31.333Z,99988.81
2023-02-02T07:15:35.769Z,99986.81
2023-02-02T07:16:40.279Z,99996.95
2023-02-02T07:17:44.586Z,100005.67
2023-02-02T07:18:48.871Z,100008.02
2023-02-02T07:19:53.206Z,100013.57
2023-02-02T07:20:57.487Z,100016.41
2023-02-02T07:22:01.876Z,100010.42
2023-02-02T07:23:06.284Z,100005.64
2023-02-02T07:24:10.799Z,100021.98
2023-02-02T07:25:15.119Z,100033.78
2023-02-02T07:26:19.688Z,100034.91
2023-02-02T07:27:24.125Z,100031.89
2023-02-02T07:28:28.453Z,100044.19
2023-02-02T07:29:32.769Z,100049.81
2023-02-02T07:30:37.122Z,100049.41
2023-02-02T07:31:41.704Z,100040.52
2023-02-02T07:32:46.189Z,100044.98
2023-02-02T07:33:50.547Z,100044.53
2023-02-02T07:34:54.845Z,100053.75
2023-02-02T07:35:59.158Z,100057.23
2023-02-02T07:37:03.538Z,100049.29
2023-02-02T07:38:07.815Z,100061.66
2023-02-02T07:39:12.099Z,100058.25
2023-02-02T07:40:16.404Z,100061.08
2023-02-02T07:41:20.736Z,100051.33
2023-02-02T07:42:25.015Z,100066.53
2023-02-02T07:43:29.321Z,100062.73
2023-02-02T07:44:33.633Z,100060.03
2023-02-02T07:45:38.777Z,100057.73
2023-02-02T07:46:43.852Z,100060.55
2023-02-02T07:47:48.488Z,100077.63
2023-02-02T07:48:52.786Z,100076.28
2023-02-02T07:49:57.228Z,100071.77
2023-02-02T07:51:01.530Z,100073.11
2023-02-02T07:52:05.893Z,100082.25
2023-02-02T07:53:10.189Z,100081.31
2023-02-02T07:54:14.509Z,100082.11
2023-02-02T07:55:18.874Z,100078.25
2023-02-02T07:56:23.267Z,100073.98
2023-02-02T07:57:27.571Z,100082.3
2023-02-02T07:58:31.840Z,100079.8
2023-02-02T07:59:36.155Z,100090.28
2023-02-02T08:00:40.497Z,100110.05
2023-02-02T08:01:44.979Z,100114.42
2023-02-02T08:02:49.528Z,100117.3
2023-02-02T08:03:53.899Z,100108.59
2023-02-02T08:04:58.196Z,100113.29
2023-02-02T08:06:02.576Z,100118.4
2023-02-02T08:07:06.927Z,100120.01
2023-02-02T08:08:11.472Z,100137.77
2023-02-02T08:09:15.842Z,100136.11
2023-02-02T08:10:20.178Z,100143.48
2023-02-02T08:11:24.483Z,100145.58
2023-02-02T08:12:28.781Z,100131.03
2023-02-02T08:13:33.118Z,100150.87
2023-02-02T08:14:37.590Z,100145.67
2023-02-02T08:15:41.979Z,100163.76
2023-02-02T08:16:46.297Z,100156.91
2023-02-02T08:17:50.629Z,100144.94
2023-02-02T08:18:54.948Z,100156.66
2023-02-02T08:19:59.306Z,100166.15
2023-02-02T08:21:03.642Z,100166.83
2023-02-02T08:22:08.023Z,100173.27
2023-02-02T08:23:12.439Z,100170.85
2023-02-02T08:24:16.764Z,100181.72
2023-02-02T08:25:21.091Z,100184.14
2023-02-02T08:26:25.470Z,100180.23
2023-02-02T08:27:30.023Z,100189.35
2023-02-02T08:28:34.335Z,100182.92
2023-02-02T08:29:38.678Z,100179.5
2023-02-02T08:30:43.061Z,100193.71
2023-02-02T08:31:47.706Z,100191.03
2023-02-02T08:32:52.249Z,100191.62
2023-02-02T08:33:56.549Z,100191.38
2023-02-02T08:35:00.862Z,100193.35
2023-02-02T08:36:05.321Z,100198.22
2023-02-02T08:37:09.655Z,100196.66
2023-02-02T08:38:13.960Z,100204.34
2023-02-02T08:39:18.403Z,100210.59
2023-02-02T08:40:22.953Z,100221.3
2023-02-02T08:41:27.457Z,100226.84
2023-02-02T08:42:31.854Z,100209.41
2023-02-02T08:43:36.209Z,100214.41
2023-02-02T08:46:05.175Z,100224.48
2023-02-02T08:47:10.085Z,100225.22
2023-02-02T08:48:15.043Z,100207.86
2023-02-02T08:49:19.369Z,100231.78
2023-02-02T08:50:23.757Z,100227
2023-02-02T08:51:28.049Z,100232.94
2023-02-02T08:52:32.332Z,100222.28
2023-02-02T08:53:36.659Z,100239.96
2023-02-02T08:54:41.016Z,100241.19
2023-02-02T08:55:45.315Z,100239.96
2023-02-02T08:56:49.631Z,100238.09
2023-02-02T08:57:53.964Z,100227.13
2023-02-02T08:58:58.294Z,100236.55
2023-02-02T09:00:02.576Z,100244.16
2023-02-02T09:01:07.111Z,100262.59
2023-02-02T09:02:11.698Z,100264.13
2023-02-02T09:03:16.095Z,100253.22
2023-02-02T09:04:20.377Z,100268.23
2023-02-02T09:05:25.640Z,100272.44
2023-02-02T09:06:30.472Z,100273.94
2023-02-02T09:07:34.768Z,100269.66
2023-02-02T09:08:39.216Z,100267.25
2023-02-02T09:09:43.644Z,100276.81
2023-02-02T09:10:47.952Z,100280.58
2023-02-02T09:11:52.287Z,100285.8
2023-02-02T09:12:56.588Z,100289.16
2023-02-02T09:14:00.918Z,100284.47
2023-02-02T09:15:05.413Z,100285.55
2023-02-02T09:16:09.897Z,100294.67
2023-02-02T09:17:14.393Z,100298.95
2023-02-02T09:18:18.757Z,100313.11
2023-02-02T09:19:23.126Z,100292.78
2023-02-02T09:20:27.417Z,100304.52
2023-02-02T09:21:31.754Z,100306.94
2023-02-02T09:22:36.081Z,100300.91
2023-02-02T09:23:40.393Z,100315.38
2023-02-02T09:24:44.686Z,100312.56
2023-02-02T09:25:48.961Z,100322.5
2023-02-02T09:26:53.426Z,100323.61
2023-02-02T09:27:57.850Z,100326.36
2023-02-02T09:29:02.191Z,100323.53
2023-02-02T09:30:06.478Z,100335.25
2023-02-02T09:31:10.951Z,100324.69
2023-02-02T09:32:15.411Z,100313.98
2023-02-02T09:33:19.750Z,100320.08
2023-02-02T09:34:24.086Z,100329.12
2023-02-02T09:35:28.796Z,100338.09
2023-02-02T09:36:33.135Z,100333.98
2023-02-02T09:37:37.435Z,100337.34
2023-02-02T09:38:41.739Z,100340.16
2023-02-02T09:39:46.101Z,100347.6
2023-02-02T09:40:50.367Z,100347.85
2023-02-02T09:41:54.744Z,100342.48
2023-02-02T09:42:59.038Z,100349.41
2023-02-02T09:44:03.430Z,100340.61
2023-02-02T09:45:07.812Z,100340.68
2023-02-02T09:46:12.248Z,100351.92
2023-02-02T09:47:16.721Z,100348.13
2023-02-02T09:48:21.095Z,100344.09
2023-02-02T09:49:25.392Z,100343.86
2023-02-02T09:50:29.685Z,100341.95
2023-02-02T09:51:34.053Z,100335.66
2023-02-02T09:52:38.326Z,100346.31
2023-02-02T09:53:56.302Z,100347.24
2023-02-02T09:55:00.621Z,100342
2023-02-02T09:56:04.934Z,100335.23
2023-02-02T09:57:09.235Z,100347.12
2023-02-02T09:58:13.528Z,100347.12
2023-02-02T09:59:24.277Z,100350.58
2023-02-02T10:00:28.794Z,100353.53
2023-02-02T10:01:33.275Z,100348.58
2023-02-02T10:02:37.704Z,100353.02
2023-02-02T10:03:42.162Z,100358.56
2023-02-02T10:04:46.597Z,100361.92
2023-02-02T10:05:50.928Z,100368.36
2023-02-02T10:06:55.273Z,100375.73
2023-02-02T10:07:59.609Z,100368.96
2023-02-02T10:09:04.248Z,100379.84
2023-02-02T10:10:08.618Z,100377.75
2023-02-02T10:11:12.946Z,100378.95
2023-02-02T10:12:17.258Z,100384.87
2023-02-02T10:13:21.709Z,100389.48
2023-02-02T10:14:26.113Z,100385.8
2023-02-02T10:15:30.724Z,100391.16
2023-02-02T10:16:35.213Z,100393.69
2023-02-02T10:17:39.536Z,100387.06
2023-02-02T10:18:43.846Z,100397.63
2023-02-02T10:19:48.395Z,100399.13
2023-02-02T10:20:52.706Z,100396.11
2023-02-02T10:21:57.035Z,100400.72
2023-02-02T10:23:01.415Z,100399.72
2023-02-02T10:24:05.686Z,100409.16
2023-02-02T10:25:09.995Z,100403.21
2023-02-02T10:26:14.296Z,100418.61
2023-02-02T10:27:18.599Z,100404.81
2023-02-02T10:28:22.900Z,100423.34
2023-02-02T10:29:28.132Z,100428.43
2023-02-02T10:30:46.943Z,100426.69
2023-02-02T10:31:51.887Z,100426.01
2023-02-02T10:32:56.423Z,100427.16
2023-02-02T10:34:03.637Z,100427.5
2023-02-02T10:35:17.120Z,100433.52
2023-02-02T10:36:21.412Z,100446.44
2023-02-02T10:37:26.012Z,100439.95
2023-02-02T10:38:30.334Z,100444.86
2023-02-02T10:39:34.669Z,100455.53
2023-02-02T10:40:39.196Z,100446.83
2023-02-02T10:41:43.518Z,100438.34
2023-02-02T10:42:49.014Z,100466.45
2023-02-02T10:43:53.324Z,100457.48
2023-02-02T10:44:57.938Z,100455.42
2023-02-02T10:46:02.369Z,100452.62
2023-02-02T10:47:06.832Z,100455.62
2023-02-02T10:48:11.116Z,100461.53
2023-02-02T10:49:15.438Z,100461.42
2023-02-02T10:50:19.985Z,100461.34
2023-02-02T10:51:24.349Z,100459.16
2023-02-02T10:52:28.736Z,100460.61
2023-02-02T10:53:33.035Z,100460.5
2023-02-02T10:54:58.325Z,100460.84
2023-02-02T10:56:05.538Z,100461.92
2023-02-02T10:57:09.816Z,100464.98
2023-02-02T10:58:14.118Z,100464.44
2023-02-02T10:59:18.425Z,100468.33
2023-02-02T11:00:24.752Z,100472.84
2023-02-02T11:01:30.049Z,100477.22
2023-02-02T11:02:34.554Z,100477.37
2023-02-02T11:03:38.941Z,100477.57
2023-02-02T11:04:43.241Z,100475.91
2023-02-02T11:05:47.551Z,100485.03
2023-02-02T11:06:51.905Z,100488.8
2023-02-02T11:07:56.214Z,100488.55
2023-02-02T11:09:00.604Z,100485.39
2023-02-02T11:10:04.947Z,100489.74
2023-02-02T11:11:09.260Z,100489.08
2023-02-02T11:12:13.703Z,100495.77
2023-02-02T11:13:18.207Z,100496.59
2023-02-02T11:14:22.508Z,100497.04
2023-02-02T11:15:26.843Z,100489.01
2023-02-02T11:16:44.360Z,100497.04
2023-02-02T11:17:49.019Z,100487.23
2023-02-02T11:18:53.385Z,100490.83
2023-02-02T11:19:57.683Z,100497.94
2023-02-02T11:21:01.980Z,100499.2
2023-02-02T11:22:06.303Z,100509.43
2023-02-02T11:23:10.610Z,100503.48
2023-02-02T11:24:14.928Z,100510.27
2023-02-02T11:25:19.215Z,100513.72
2023-02-02T11:26:23.565Z,100512.09
2023-02-02T11:27:28.006Z,100515.95
2023-02-02T11:28:32.324Z,100516.66
2023-02-02T11:29:36.650Z,100516.86
2023-02-02T11:30:41.029Z,100516.77
2023-02-02T11:31:45.509Z,100525.34
2023-02-02T11:32:49.910Z,100522.16
2023-02-02T11:33:54.239Z,100522.5
2023-02-02T11:34:58.566Z,100528.87
2023-02-02T11:36:02.912Z,100525.27
2023-02-02T11:37:07.175Z,100527.36
2023-02-02T11:38:11.489Z,100526.69
2023-02-02T11:39:15.852Z,100528.81
2023-02-02T11:40:20.157Z,100527.95
2023-02-02T11:41:24.479Z,100525.61
2023-02-02T11:42:28.808Z,100534.33
2023-02-02T11:43:33.097Z,100535.92
2023-02-02T11:44:37.392Z,100541.77
2023-02-02T11:45:41.721Z,100535.25
2023-02-02T11:46:46.159Z,100545.12
2023-02-02T11:47:50.588Z,100545.97
2023-02-02T11:48:54.884Z,100538.25
2023-02-02T11:50:00.660Z,100535.16
2023-02-02T11:51:07.605Z,100545.8
2023-02-02T11:52:14.393Z,100549.15
2023-02-02T11:53:18.709Z,100549.03
2023-02-02T11:54:23.079Z,100549.81
2023-02-02T11:55:27.364Z,100553.16
2023-02-02T11:56:31.630Z,100553.98
2023-02-02T11:57:35.957Z,100543.85
2023-02-02T11:58:40.249Z,100549.95
2023-02-02T11:59:44.543Z,100559.92
2023-02-02T12:00:48.857Z,100553.15
2023-02-02T12:01:53.370Z,100557.83
2023-02-02T12:02:57.705Z,100550.53
2023-02-02T12:04:02.137Z,100552.95
2023-02-02T12:05:06.551Z,100549.7
2023-02-02T12:06:10.847Z,100558.06
2023-02-02T12:07:15.370Z,100556.53
2023-02-02T12:08:19.672Z,100564.16
2023-02-02T12:09:24.015Z,100566.5
2023-02-02T12:10:30.083Z,100563.66
2023-02-02T12:11:38.420Z,100572.25
2023-02-02T12:12:43.465Z,100563.72
2023-02-02T12:13:48.060Z,100560.84
2023-02-02T12:14:52.349Z,100566.37
2023-02-02T12:15:56.843Z,100558.67
2023-02-02T12:17:01.253Z,100570.65
2023-02-02T12:18:05.663Z,100567.36
2023-02-02T12:19:09.952Z,100566.2
2023-02-02T12:20:14.273Z,100575.31
2023-02-02T12:21:18.579Z,100578.4
2023-02-02T12:22:23.053Z,100575.38
2023-02-02T12:23:27.518Z,100575.97
2023-02-02T12:24:31.844Z,100579.23
2023-02-02T12:25:36.511Z,100581.91
2023-02-02T12:26:40.893Z,100589.44
2023-02-02T12:27:45.268Z,100589.8
2023-02-02T12:28:49.593Z,100594.59
2023-02-02T12:29:54.002Z,100594.25
2023-02-02T12:30:58.756Z,100606.84
2023-02-02T12:32:03.388Z,100614.95
2023-02-02T12:33:07.882Z,100617.08